Pagrindinis puslapis
METAR-TAF:

METAR-TAF

Oro uostai :

Leonardo da Vinčio-Fjumičino oro uostas

Roma-Fjumičinas, Italija

platuma: 41-48N, ilguma: 012-14E, Aukštis: 2 m

Dabartinis oras

Ataskaita buvo paskelbta 34 minutes, ne 04:50 UTC
Vėjas 2 kt iš Šiaurės
Temperatūra 14°C
Drėgmė 88%
Slėgis 1018 hPa
Matomumas 10 km arba daugiau
nėra debesų žemiau 1500 m ir nėra kamuolinių lietaus debesų

METAR: LIRF 290450Z 36002KT CAVOK 14/12 Q1018 NOSIG

Laikas: 07:24 (05:24 UTC)

Prognozė

Ataskaita buvo paskelbta 6 valandos ir 24 minutes, ne 23:00 UTC
Prognozė galioja nuo 29 metu 00 UTC su 30 metu 06 UTC
Vėjas 5 kt nuo kintamojo kryptimis
Matomumas 10 km arba daugiau
Išsisklaidę debesys ne aukštis 5000 ft
Tapsmas
nuo 29 metu 06 UTC su 29 metu 08 UTC
Vėjas 12 kt iš Pietvakarių
Laikinai
nuo 29 metu 10 UTC su 29 metu 16 UTC
perkūnija, lietus
Tapsmas
nuo 29 metu 16 UTC su 29 metu 18 UTC
Vėjas 12 kt iš Šiaurės/Šiaurės Rytų

TAF: LIRF 282300Z 2900/3006 VRB05KT 9999 SCT050 BECMG 2906/2908 23012KT TEMPO 2910/2916 TSRA BECMG 2916/2918 03012KT

Orai ataskaitas ir orų prognozės (METAR, TAF).

turimą stotys yra geltonos ir raudonos taškus žemėlapyje.

Perkelti pele per norėdami pamatyti stoties vardą.

Tada spustelėkite, norėdami matyti oro stebėjimo ir prognozės.

Norėdami pakeisti žemėlapį: spustelėkite ant žalios mygtukų su juodo kryžiaus žemyn,; žalią mygtuką su brūkšneliu, jei norite nutolinti; arba žalių rodyklių gretimoms žemėlapius.


METAR-TAF: